Dixiana, South Carolina
Current Conditions -  °F | °C
As of 4:28 PM on Monday 24 Nov 2014 (Local Time) from KCAE Reporting Station
Broken Clouds Broken Clouds  
Wind Chill: 73°   Ceiling: 10000
Heat Index: 73°   Visibility: 10mi
Dew Point: 62°   Wind: 8mph
Humidity: 68%   Direction: 200°SSW
Pressure: 29.8"   Gusts: NA
Location:  33.9973°N, 81.0998°W
Report Text: KCAE 242128Z 20007KT 160V290 10SM SCT038 SCT070 BKN100 23/17 A2980 RMK AO2 RAB09E27 TSE01B06E21 TS DSIPT P0000 T02280167
Loading
Personal Weather Stations






























Interactive Weather Map New forecast layout! Learn more

10-Day Weather Forecast

Advertisements
Track Severe Weather on mobile